createdAt,value
2022-12-11T00:02:09.597Z,13.29
2022-12-11T00:04:38.248Z,13.29
2022-12-11T00:07:09.637Z,13.28
2022-12-11T00:09:37.704Z,13.24
2022-12-11T00:12:08.736Z,13.26
2022-12-11T00:14:37.095Z,13.25
2022-12-11T00:17:08.322Z,13.25
2022-12-11T00:20:09.073Z,13.27
2022-12-11T00:22:41.421Z,13.24
2022-12-11T00:25:11.268Z,13.24
2022-12-11T00:28:05.537Z,13.24
2022-12-11T00:31:06.215Z,13.22
2022-12-11T00:33:37.421Z,13.21
2022-12-11T00:36:14.951Z,13.18
2022-12-11T00:38:44.555Z,13.18
2022-12-11T00:41:13.776Z,13.18
2022-12-11T00:44:07.822Z,13.18
2022-12-11T00:46:38.719Z,13.15
2022-12-11T00:49:07.071Z,13.14
2022-12-11T00:51:38.030Z,13.12
2022-12-11T00:54:08.933Z,13.13
2022-12-11T00:56:37.238Z,13.12
2022-12-11T00:59:08.045Z,13.12
2022-12-11T01:01:39.853Z,13.13
2022-12-11T01:04:09.049Z,13.13
2022-12-11T01:06:37.313Z,13.14
2022-12-11T01:12:42.383Z,13.07
2022-12-11T01:15:13.869Z,13.03
2022-12-11T01:18:15.729Z,13.00
2022-12-11T01:21:16.858Z,12.96
2022-12-11T01:24:08.145Z,12.94
2022-12-11T01:27:08.771Z,12.91
2022-12-11T01:29:39.442Z,12.91
2022-12-11T01:32:09.390Z,12.93
2022-12-11T01:34:50.035Z,12.94
2022-12-11T01:37:36.522Z,12.94
2022-12-11T01:40:09.158Z,12.91
2022-12-11T01:43:07.673Z,12.88
2022-12-11T01:45:42.899Z,12.87
2022-12-11T01:48:15.316Z,12.86
2022-12-11T01:51:08.622Z,12.87
2022-12-11T01:54:09.304Z,12.89
2022-12-11T01:56:39.723Z,12.89
2022-12-11T01:59:10.452Z,12.86
2022-12-11T02:01:46.026Z,12.86
2022-12-11T02:04:15.436Z,12.86
2022-12-11T02:07:07.543Z,12.86
2022-12-11T02:09:42.554Z,12.84
2022-12-11T02:12:34.931Z,12.82
2022-12-11T02:15:41.614Z,12.79
2022-12-11T02:18:19.407Z,12.76
2022-12-11T02:20:48.152Z,12.71
2022-12-11T02:23:40.951Z,12.70
2022-12-11T02:27:07.037Z,12.73
2022-12-11T02:29:46.926Z,12.74
2022-12-11T02:32:44.403Z,12.76
2022-12-11T02:35:24.702Z,12.77
2022-12-11T02:38:22.828Z,12.76
2022-12-11T02:40:53.830Z,12.73
2022-12-11T02:43:24.371Z,12.71
2022-12-11T02:46:06.555Z,12.71
2022-12-11T02:48:38.576Z,12.70
2022-12-11T02:51:10.395Z,12.70
2022-12-11T02:53:42.518Z,12.66
2022-12-11T02:57:05.822Z,12.62
2022-12-11T02:59:40.168Z,12.60
2022-12-11T03:02:09.526Z,12.60
2022-12-11T03:08:05.694Z,12.57
2022-12-11T03:10:36.624Z,12.59
2022-12-11T03:13:07.661Z,12.59
2022-12-11T03:16:06.338Z,12.58
2022-12-11T03:18:46.862Z,12.60
2022-12-11T03:21:38.385Z,12.61
2022-12-11T03:24:22.206Z,12.58
2022-12-11T03:27:21.041Z,12.59
2022-12-11T03:30:09.678Z,12.58
2022-12-11T03:32:43.412Z,12.54
2022-12-11T03:35:35.853Z,12.53
2022-12-11T03:38:13.106Z,12.50
2022-12-11T03:40:46.229Z,12.49
2022-12-11T03:43:15.955Z,12.50
2022-12-11T03:45:48.086Z,12.52
2022-12-11T03:48:20.033Z,12.52
2022-12-11T03:51:35.042Z,12.49
2022-12-11T03:54:06.921Z,12.48
2022-12-11T03:56:40.601Z,12.51
2022-12-11T03:59:15.760Z,12.52
2022-12-11T04:01:44.185Z,12.50
2022-12-11T04:04:42.940Z,12.46
2022-12-11T04:07:37.396Z,12.43
2022-12-11T04:10:44.210Z,12.40
2022-12-11T04:14:10.807Z,12.38
2022-12-11T04:16:39.268Z,12.28
2022-12-11T04:23:05.745Z,12.27
2022-12-11T04:25:38.618Z,12.26
2022-12-11T04:28:06.886Z,12.20
2022-12-11T04:30:38.044Z,12.20
2022-12-11T04:33:06.693Z,12.17
2022-12-11T04:35:39.008Z,12.13
2022-12-11T04:38:13.791Z,12.08
2022-12-11T04:40:42.074Z,12.00
2022-12-11T04:46:07.080Z,11.91
2022-12-11T04:48:38.004Z,11.83
2022-12-11T04:51:07.306Z,11.77
2022-12-11T04:53:39.153Z,11.72
2022-12-11T04:56:41.613Z,11.65
2022-12-11T04:59:45.458Z,11.59
2022-12-11T05:05:37.162Z,11.46
2022-12-11T05:08:06.725Z,11.44
2022-12-11T05:10:37.886Z,11.45
2022-12-11T05:13:06.113Z,11.46
2022-12-11T05:15:40.061Z,11.50
2022-12-11T05:18:08.437Z,11.48
2022-12-11T05:20:36.746Z,11.45
2022-12-11T05:23:08.190Z,11.44
2022-12-11T05:25:36.062Z,11.40
2022-12-11T05:28:06.998Z,11.39
2022-12-11T05:30:38.261Z,11.39
2022-12-11T05:33:06.931Z,11.40
2022-12-11T05:35:38.032Z,11.46
2022-12-11T05:38:06.310Z,11.50
2022-12-11T05:40:37.144Z,11.57
2022-12-11T05:43:08.358Z,11.54
2022-12-11T05:45:37.006Z,11.51
2022-12-11T05:48:05.397Z,11.48
2022-12-11T05:50:36.362Z,11.43
2022-12-11T05:53:07.523Z,11.38
2022-12-11T05:55:36.447Z,11.41
2022-12-11T05:58:06.069Z,11.48
2022-12-11T06:00:36.970Z,11.48
2022-12-11T06:03:08.172Z,11.44
2022-12-11T06:05:41.122Z,11.42
2022-12-11T06:08:09.827Z,11.37
2022-12-11T06:10:38.191Z,11.31
2022-12-11T06:13:06.441Z,11.31
2022-12-11T06:15:38.071Z,11.40
2022-12-11T06:18:07.121Z,11.42
2022-12-11T06:20:36.528Z,11.47
2022-12-11T06:23:07.485Z,11.51
2022-12-11T06:25:35.861Z,11.51
2022-12-11T06:28:07.385Z,11.51
2022-12-11T06:30:39.055Z,11.48
2022-12-11T06:33:08.316Z,11.49
2022-12-11T06:35:41.993Z,11.47
2022-12-11T06:38:11.795Z,11.51
2022-12-11T06:40:40.290Z,11.55
2022-12-11T06:43:08.514Z,11.59
2022-12-11T06:45:39.161Z,11.65
2022-12-11T06:48:07.573Z,11.71
2022-12-11T06:50:35.803Z,11.72
2022-12-11T06:53:06.962Z,11.74
2022-12-11T06:55:38.721Z,11.77
2022-12-11T06:58:07.022Z,11.77
2022-12-11T07:00:37.695Z,11.76
2022-12-11T07:03:06.781Z,11.74
2022-12-11T07:05:35.543Z,11.75
2022-12-11T07:08:08.179Z,11.76
2022-12-11T07:10:36.526Z,11.75
2022-12-11T07:13:04.868Z,11.73
2022-12-11T07:15:40.217Z,11.70
2022-12-11T07:18:09.023Z,11.73
2022-12-11T07:20:37.391Z,11.74
2022-12-11T07:23:05.746Z,11.75
2022-12-11T07:25:38.956Z,11.72
2022-12-11T07:28:09.133Z,11.64
2022-12-11T07:30:40.407Z,11.57
2022-12-11T07:33:08.716Z,11.47
2022-12-11T07:35:37.742Z,11.41
2022-12-11T07:38:06.338Z,11.28
2022-12-11T07:40:35.828Z,11.18
2022-12-11T07:43:07.038Z,11.08
2022-12-11T07:45:35.299Z,10.96
2022-12-11T07:48:04.416Z,10.87
2022-12-11T07:50:39.784Z,10.84
2022-12-11T07:53:08.584Z,10.89
2022-12-11T07:55:36.898Z,10.94
2022-12-11T07:58:05.421Z,10.98
2022-12-11T08:00:36.330Z,10.97
2022-12-11T08:03:04.573Z,10.93
2022-12-11T08:05:35.762Z,10.92
2022-12-11T08:08:04.334Z,10.87
2022-12-11T08:10:35.601Z,10.88
2022-12-11T08:13:03.923Z,10.85
2022-12-11T08:15:35.164Z,10.80
2022-12-11T08:18:07.048Z,10.77
2022-12-11T08:20:36.034Z,10.77
2022-12-11T08:23:04.232Z,10.73
2022-12-11T08:25:36.431Z,10.69
2022-12-11T08:28:06.031Z,10.69
2022-12-11T08:30:34.358Z,10.72
2022-12-11T08:33:02.726Z,10.82
2022-12-11T08:35:34.549Z,10.97
2022-12-11T08:38:05.782Z,11.07
2022-12-11T08:40:34.555Z,11.13
2022-12-11T08:43:05.723Z,11.18
2022-12-11T08:45:34.751Z,11.19
2022-12-11T08:48:06.722Z,11.11
2022-12-11T08:51:05.691Z,10.98
2022-12-11T08:54:04.928Z,10.90
2022-12-11T08:57:04.137Z,10.86
2022-12-11T09:02:32.358Z,10.71
2022-12-11T09:05:03.801Z,10.67
2022-12-11T09:08:05.094Z,10.54
2022-12-11T09:11:08.119Z,10.41
2022-12-11T09:14:07.942Z,10.35
2022-12-11T09:16:45.222Z,10.28
2022-12-11T09:19:15.659Z,10.24
2022-12-11T09:21:48.314Z,10.20
2022-12-11T09:24:17.099Z,10.16
2022-12-11T09:27:11.623Z,10.10
2022-12-11T09:29:47.553Z,10.04
2022-12-11T09:32:16.546Z,10.01
2022-12-11T09:35:12.478Z,9.95
2022-12-11T09:37:47.990Z,9.93
2022-12-11T09:40:16.768Z,9.91
2022-12-11T09:42:55.886Z,9.90
2022-12-11T09:45:34.724Z,9.90
2022-12-11T09:48:06.032Z,9.90
2022-12-11T09:50:36.798Z,9.90
2022-12-11T09:53:15.633Z,9.90
2022-12-11T09:56:06.607Z,9.90
2022-12-11T09:59:10.154Z,9.94
2022-12-11T10:02:00.101Z,10.11
2022-12-11T10:04:49.981Z,10.10
2022-12-11T10:07:48.227Z,10.07
2022-12-11T10:10:45.174Z,10.19
2022-12-11T10:13:53.588Z,10.29
2022-12-11T10:16:24.909Z,10.41
2022-12-11T10:19:31.368Z,10.53
2022-12-11T10:22:05.785Z,10.42
2022-12-11T10:25:11.226Z,10.23
2022-12-11T10:27:42.896Z,10.08
2022-12-11T10:30:34.437Z,9.96
2022-12-11T10:33:22.148Z,9.84
2022-12-11T10:36:00.989Z,9.74
2022-12-11T10:38:34.175Z,9.65
2022-12-11T10:41:25.404Z,9.62
2022-12-11T10:44:02.858Z,9.53
2022-12-11T10:46:34.083Z,9.47
2022-12-11T10:49:02.837Z,9.44
2022-12-11T10:51:34.314Z,9.40
2022-12-11T10:54:23.040Z,9.33
2022-12-11T10:57:03.299Z,9.34
2022-12-11T10:59:51.862Z,9.34
2022-12-11T11:02:57.187Z,9.37
2022-12-11T11:05:37.697Z,9.44
2022-12-11T11:08:11.756Z,9.41
2022-12-11T11:10:50.710Z,9.43
2022-12-11T11:13:19.580Z,9.40
2022-12-11T11:16:15.781Z,9.39
2022-12-11T11:18:59.362Z,9.37
2022-12-11T11:21:35.544Z,9.34
2022-12-11T11:24:04.769Z,9.34
2022-12-11T11:27:04.743Z,9.35
2022-12-11T11:29:35.816Z,9.31
2022-12-11T11:32:35.845Z,9.29
2022-12-11T11:35:13.805Z,9.26
2022-12-11T11:38:10.961Z,9.25
2022-12-11T11:41:06.636Z,9.20
2022-12-11T11:44:00.406Z,9.17
2022-12-11T11:46:31.758Z,9.16
2022-12-11T11:49:54.401Z,9.18
2022-12-11T11:53:05.543Z,9.18
2022-12-11T11:56:00.649Z,9.12
2022-12-11T11:58:40.837Z,9.07
2022-12-11T12:01:20.515Z,9.08
2022-12-11T12:04:03.715Z,9.10
2022-12-11T12:07:12.122Z,9.12
2022-12-11T12:10:04.521Z,9.15
2022-12-11T12:13:01.245Z,9.16
2022-12-11T12:16:00.011Z,9.37
2022-12-11T12:19:09.869Z,9.42
2022-12-11T12:22:06.261Z,9.59
2022-12-11T12:25:09.792Z,9.77
2022-12-11T12:28:01.297Z,9.71
2022-12-11T12:31:00.424Z,9.56
2022-12-11T12:33:50.188Z,9.44
2022-12-11T12:37:11.698Z,9.32
2022-12-11T12:39:40.233Z,9.22
2022-12-11T12:42:32.341Z,9.22
2022-12-11T12:45:09.992Z,9.18
2022-12-11T12:47:40.426Z,9.15
2022-12-11T12:50:38.549Z,9.14
2022-12-11T12:53:09.081Z,9.10
2022-12-11T12:55:37.805Z,9.13
2022-12-11T12:58:08.706Z,9.13
2022-12-11T13:00:45.037Z,9.17
2022-12-11T13:03:36.040Z,9.19
2022-12-11T13:06:11.655Z,9.18
2022-12-11T13:09:22.195Z,9.17
2022-12-11T13:11:54.806Z,9.13
2022-12-11T13:14:34.670Z,9.11
2022-12-11T13:17:29.950Z,9.07
2022-12-11T13:20:24.057Z,9.05
2022-12-11T13:22:57.210Z,9.03
2022-12-11T13:25:52.091Z,9.06
2022-12-11T13:31:32.401Z,9.07
2022-12-11T13:34:29.555Z,9.09
2022-12-11T13:37:03.735Z,9.08
2022-12-11T13:39:35.868Z,9.11
2022-12-11T13:42:42.938Z,9.32
2022-12-11T13:45:40.809Z,9.69
2022-12-11T13:48:35.127Z,9.87
2022-12-11T13:51:04.829Z,10.00
2022-12-11T13:53:34.153Z,10.12
2022-12-11T13:56:29.426Z,10.17
2022-12-11T13:59:00.406Z,10.10
2022-12-11T14:01:35.146Z,10.02
2022-12-11T14:04:25.833Z,10.03
2022-12-11T14:06:54.292Z,10.08
2022-12-11T14:09:34.491Z,10.12
2022-12-11T14:12:04.254Z,10.06
2022-12-11T14:14:44.702Z,9.93
2022-12-11T14:17:34.084Z,9.81
2022-12-11T14:20:29.932Z,9.82
2022-12-11T14:23:10.773Z,9.87
2022-12-11T14:25:39.023Z,9.84
2022-12-11T14:28:31.464Z,9.87
2022-12-11T14:31:02.810Z,9.84
2022-12-11T14:33:43.954Z,9.78
2022-12-11T14:36:12.953Z,9.70
2022-12-11T14:39:12.536Z,9.66
2022-12-11T14:42:29.210Z,9.64
2022-12-11T14:45:23.778Z,9.63
2022-12-11T14:47:53.968Z,9.59
2022-12-11T14:55:29.551Z,9.48
2022-12-11T14:58:38.096Z,9.42
2022-12-11T15:01:42.771Z,9.48
2022-12-11T15:04:20.186Z,9.55
2022-12-11T15:06:50.977Z,9.57
2022-12-11T15:09:25.489Z,9.59
2022-12-11T15:15:41.555Z,9.53
2022-12-11T15:18:40.007Z,9.49
2022-12-11T15:32:33.040Z,8.85
2022-12-11T15:35:30.305Z,8.75
2022-12-11T15:38:00.975Z,8.69
2022-12-11T15:44:01.022Z,8.59
2022-12-11T15:46:59.887Z,8.51
2022-12-11T15:49:44.280Z,8.46
2022-12-11T15:52:40.053Z,8.50
2022-12-11T15:58:33.214Z,8.48
2022-12-11T16:01:01.663Z,8.43
2022-12-11T16:04:04.564Z,8.38
2022-12-11T16:06:58.268Z,8.35
2022-12-11T16:09:27.029Z,8.39
2022-12-11T16:11:55.685Z,8.51
2022-12-11T16:14:24.143Z,8.63
2022-12-11T16:16:53.111Z,8.79
2022-12-11T16:19:21.502Z,8.95
2022-12-11T16:21:50.146Z,9.09
2022-12-11T16:24:18.753Z,9.21
2022-12-11T16:26:47.288Z,9.38
2022-12-11T16:29:15.787Z,9.55
2022-12-11T16:31:44.658Z,9.70
2022-12-11T16:34:15.710Z,9.87
2022-12-11T16:36:47.112Z,10.02
2022-12-11T16:39:18.300Z,10.20
2022-12-11T16:41:46.545Z,10.37
2022-12-11T16:44:14.796Z,10.54
2022-12-11T16:46:43.044Z,10.71
2022-12-11T16:49:11.255Z,10.87
2022-12-11T16:51:39.571Z,11.03
2022-12-11T16:54:07.982Z,11.20
2022-12-11T16:56:36.341Z,11.35
2022-12-11T16:59:05.666Z,11.49
2022-12-11T17:01:34.593Z,11.66
2022-12-11T17:04:05.501Z,11.82
2022-12-11T17:06:33.817Z,12.00
2022-12-11T17:09:02.443Z,12.17
2022-12-11T17:11:33.206Z,12.28
2022-12-11T17:14:02.124Z,12.35
2022-12-11T17:16:31.279Z,12.46
2022-12-11T17:18:59.721Z,12.56
2022-12-11T17:21:28.366Z,12.70
2022-12-11T17:23:57.059Z,12.82
2022-12-11T17:26:39.141Z,12.91
2022-12-11T17:29:07.758Z,12.96
2022-12-11T17:31:51.567Z,12.96
2022-12-11T17:34:27.366Z,13.00
2022-12-11T17:37:02.425Z,13.09
2022-12-11T17:39:30.687Z,13.13
2022-12-11T17:41:58.956Z,13.18
2022-12-11T17:44:27.714Z,13.09
2022-12-11T17:47:06.083Z,13.04
2022-12-11T17:49:49.597Z,13.00
2022-12-11T17:52:22.116Z,12.98
2022-12-11T17:54:59.957Z,13.01
2022-12-11T17:57:28.320Z,12.94
2022-12-11T17:59:57.302Z,13.02
2022-12-11T18:02:29.064Z,13.18
2022-12-11T18:04:57.274Z,13.25
2022-12-11T18:07:27.927Z,13.25
2022-12-11T18:09:56.646Z,13.28
2022-12-11T18:12:28.105Z,13.33
2022-12-11T18:15:02.163Z,13.36
2022-12-11T18:17:32.301Z,13.37
2022-12-11T18:20:00.661Z,13.42
2022-12-11T18:22:29.133Z,13.46
2022-12-11T18:25:01.752Z,13.52
2022-12-11T18:27:44.732Z,13.51
2022-12-11T18:30:29.700Z,13.48
2022-12-11T18:32:58.051Z,13.42
2022-12-11T18:35:26.463Z,13.38
2022-12-11T18:37:55.545Z,13.37
2022-12-11T18:40:26.369Z,13.36
2022-12-11T18:42:54.839Z,13.30
2022-12-11T18:45:33.164Z,13.25
2022-12-11T18:48:01.374Z,13.20
2022-12-11T18:50:29.621Z,13.15
2022-12-11T18:52:57.950Z,13.11
2022-12-11T18:55:26.299Z,13.04
2022-12-11T18:57:54.707Z,12.98
2022-12-11T19:00:23.202Z,12.93
2022-12-11T19:02:57.536Z,12.90
2022-12-11T19:05:25.842Z,12.89
2022-12-11T19:07:57.053Z,12.91
2022-12-11T19:10:25.333Z,12.92
2022-12-11T19:12:53.870Z,12.94
2022-12-11T19:15:24.164Z,12.95
2022-12-11T19:17:52.682Z,12.96
2022-12-11T19:23:12.553Z,13.00
2022-12-11T19:25:45.150Z,13.06
2022-12-11T19:28:13.871Z,13.07
2022-12-11T19:30:49.764Z,13.09
2022-12-11T19:33:18.161Z,13.07
2022-12-11T19:35:46.780Z,13.06
2022-12-11T19:38:15.511Z,13.01
2022-12-11T19:40:45.538Z,13.00
2022-12-11T19:43:26.555Z,12.99
2022-12-11T19:45:58.609Z,12.95
2022-12-11T19:48:27.141Z,12.95
2022-12-11T19:50:55.774Z,12.99
2022-12-11T19:53:24.311Z,12.97
2022-12-11T19:55:54.474Z,12.90
2022-12-11T19:58:23.048Z,12.79
2022-12-11T20:00:52.324Z,12.71
2022-12-11T20:03:21.047Z,12.68
2022-12-11T20:05:52.396Z,12.68
2022-12-11T20:08:43.575Z,12.67
2022-12-11T20:11:17.307Z,12.47
2022-12-11T20:13:46.901Z,12.36
2022-12-11T20:16:16.854Z,12.34
2022-12-11T20:18:45.399Z,12.23
2022-12-11T20:21:16.162Z,12.13
2022-12-11T20:23:45.119Z,12.03
2022-12-11T20:26:22.700Z,11.89
2022-12-11T20:28:53.472Z,11.85
2022-12-11T20:31:25.723Z,11.61
2022-12-11T20:33:59.858Z,11.61
2022-12-11T20:36:28.611Z,11.67
2022-12-11T20:38:57.896Z,11.72
2022-12-11T20:41:27.316Z,11.71
2022-12-11T20:43:56.183Z,11.64
2022-12-11T20:46:28.052Z,11.53
2022-12-11T20:49:01.054Z,11.48
2022-12-11T20:51:29.914Z,11.44
2022-12-11T20:54:02.062Z,11.43
2022-12-11T20:56:32.209Z,11.43
2022-12-11T20:59:01.736Z,11.40
2022-12-11T21:01:32.819Z,11.39
2022-12-11T21:04:01.091Z,11.35
2022-12-11T21:06:32.481Z,11.33
2022-12-11T21:09:02.668Z,11.32
2022-12-11T21:11:30.946Z,11.30
2022-12-11T21:13:59.350Z,11.29
2022-12-11T21:16:28.171Z,11.28
2022-12-11T21:18:57.761Z,11.28
2022-12-11T21:21:27.304Z,11.28
2022-12-11T21:23:55.776Z,11.31
2022-12-11T21:26:24.133Z,11.39
2022-12-11T21:28:53.222Z,11.42
2022-12-11T21:31:22.202Z,11.45
2022-12-11T21:33:50.641Z,11.48
2022-12-11T21:36:19.374Z,11.52
2022-12-11T21:38:48.515Z,11.55
2022-12-11T21:41:22.482Z,11.52
2022-12-11T21:44:56.553Z,11.55
2022-12-11T21:46:40.777Z,11.57
2022-12-11T21:49:09.645Z,11.57
2022-12-11T21:51:44.043Z,11.54
2022-12-11T21:54:17.654Z,11.44
2022-12-11T21:56:47.183Z,11.41
2022-12-11T21:59:15.805Z,11.37
2022-12-11T22:01:46.992Z,11.28
2022-12-11T22:04:16.285Z,11.25
2022-12-11T22:06:50.378Z,11.27
2022-12-11T22:09:25.631Z,11.27
2022-12-11T22:11:58.357Z,11.26
2022-12-11T22:14:27.255Z,11.28
2022-12-11T22:16:55.810Z,11.35
2022-12-11T22:19:27.809Z,11.36
2022-12-11T22:22:00.528Z,11.40
2022-12-11T22:24:28.770Z,11.42
2022-12-11T22:26:57.009Z,11.42
2022-12-11T22:29:25.433Z,11.42
2022-12-11T22:31:55.289Z,11.37
2022-12-11T22:34:23.691Z,11.31
2022-12-11T22:36:52.028Z,11.28
2022-12-11T22:39:23.359Z,11.28
2022-12-11T22:41:51.768Z,11.27
2022-12-11T22:44:22.679Z,11.26
2022-12-11T22:46:51.389Z,11.19
2022-12-11T22:49:23.925Z,11.11
2022-12-11T22:51:52.386Z,11.03
2022-12-11T22:54:20.654Z,10.95
2022-12-11T22:56:48.896Z,10.87
2022-12-11T22:59:19.927Z,10.75
2022-12-11T23:01:50.633Z,10.61
2022-12-11T23:04:18.960Z,10.54
2022-12-11T23:06:47.434Z,10.56
2022-12-11T23:09:21.988Z,10.52
2022-12-11T23:11:50.339Z,10.44
2022-12-11T23:14:20.085Z,10.33
2022-12-11T23:16:51.761Z,10.27
2022-12-11T23:19:25.246Z,10.23
2022-12-11T23:21:54.405Z,10.20
2022-12-11T23:24:23.480Z,10.19
2022-12-11T23:26:51.939Z,10.12
2022-12-11T23:29:20.294Z,10.09
2022-12-11T23:31:50.706Z,10.13
2022-12-11T23:34:21.329Z,10.20
2022-12-11T23:36:49.942Z,10.26
2022-12-11T23:39:18.968Z,10.26
2022-12-11T23:41:50.518Z,10.31
2022-12-11T23:44:18.459Z,10.35
2022-12-11T23:46:46.740Z,10.39
2022-12-11T23:49:14.984Z,10.43
2022-12-11T23:51:43.310Z,10.46
2022-12-11T23:54:11.583Z,10.40
2022-12-11T23:56:40.426Z,10.36
2022-12-11T23:59:08.665Z,10.33
